sensor_id;sensor_type;location;lat;lon;timestamp;P1;durP1;ratioP1;P2;durP2;ratioP2
9964;SDS011;5023;53.554;9.964;2023-01-26T00:03:58;57.47;;;29.60;;
9964;SDS011;5023;53.554;9.964;2023-01-26T00:09:02;51.07;;;26.03;;
9964;SDS011;5023;53.554;9.964;2023-01-26T00:14:04;49.73;;;27.13;;
9964;SDS011;5023;53.554;9.964;2023-01-26T00:19:06;49.07;;;26.30;;
9964;SDS011;5023;53.554;9.964;2023-01-26T00:24:10;51.53;;;26.97;;
9964;SDS011;5023;53.554;9.964;2023-01-26T00:29:12;50.40;;;25.43;;
9964;SDS011;5023;53.554;9.964;2023-01-26T00:34:14;44.90;;;24.83;;
9964;SDS011;5023;53.554;9.964;2023-01-26T00:39:18;52.80;;;26.33;;
9964;SDS011;5023;53.554;9.964;2023-01-26T00:44:20;49.90;;;26.43;;
9964;SDS011;5023;53.554;9.964;2023-01-26T00:49:23;49.53;;;26.50;;
9964;SDS011;5023;53.554;9.964;2023-01-26T00:54:27;51.27;;;26.77;;
9964;SDS011;5023;53.554;9.964;2023-01-26T00:59:29;50.53;;;27.07;;
9964;SDS011;5023;53.554;9.964;2023-01-26T01:04:32;45.50;;;26.10;;
9964;SDS011;5023;53.554;9.964;2023-01-26T01:09:35;51.17;;;28.27;;
9964;SDS011;5023;53.554;9.964;2023-01-26T01:14:37;48.77;;;26.13;;
9964;SDS011;5023;53.554;9.964;2023-01-26T01:19:39;51.93;;;27.43;;
9964;SDS011;5023;53.554;9.964;2023-01-26T01:24:43;58.20;;;29.67;;
9964;SDS011;5023;53.554;9.964;2023-01-26T01:29:45;49.90;;;26.47;;
9964;SDS011;5023;53.554;9.964;2023-01-26T01:34:47;54.37;;;28.30;;
9964;SDS011;5023;53.554;9.964;2023-01-26T01:39:51;52.33;;;27.70;;
9964;SDS011;5023;53.554;9.964;2023-01-26T01:50:34;55.77;;;27.70;;
9964;SDS011;5023;53.554;9.964;2023-01-26T01:55:40;53.73;;;27.33;;
9964;SDS011;5023;53.554;9.964;2023-01-26T02:00:42;54.00;;;27.87;;
9964;SDS011;5023;53.554;9.964;2023-01-26T02:05:47;56.23;;;28.27;;
9964;SDS011;5023;53.554;9.964;2023-01-26T02:10:56;50.93;;;26.60;;
9964;SDS011;5023;53.554;9.964;2023-01-26T02:16:05;54.63;;;27.13;;
9964;SDS011;5023;53.554;9.964;2023-01-26T02:21:08;52.43;;;28.70;;
9964;SDS011;5023;53.554;9.964;2023-01-26T02:26:16;56.00;;;27.57;;
9964;SDS011;5023;53.554;9.964;2023-01-26T02:31:20;51.30;;;26.57;;
9964;SDS011;5023;53.554;9.964;2023-01-26T02:36:25;54.70;;;27.67;;
9964;SDS011;5023;53.554;9.964;2023-01-26T02:41:29;51.57;;;26.47;;
9964;SDS011;5023;53.554;9.964;2023-01-26T02:47:00;54.27;;;26.67;;
9964;SDS011;5023;53.554;9.964;2023-01-26T02:52:10;45.53;;;25.87;;
9964;SDS011;5023;53.554;9.964;2023-01-26T02:57:14;52.33;;;25.33;;
9964;SDS011;5023;53.554;9.964;2023-01-26T03:02:16;48.50;;;26.23;;
9964;SDS011;5023;53.554;9.964;2023-01-26T03:07:19;46.93;;;24.30;;
9964;SDS011;5023;53.554;9.964;2023-01-26T03:12:22;47.93;;;26.60;;
9964;SDS011;5023;53.554;9.964;2023-01-26T03:17:24;46.07;;;24.90;;
9964;SDS011;5023;53.554;9.964;2023-01-26T03:22:26;44.97;;;22.77;;
9964;SDS011;5023;53.554;9.964;2023-01-26T03:27:47;44.23;;;23.17;;
9964;SDS011;5023;53.554;9.964;2023-01-26T03:32:50;46.20;;;23.90;;
9964;SDS011;5023;53.554;9.964;2023-01-26T03:37:52;42.80;;;23.50;;
9964;SDS011;5023;53.554;9.964;2023-01-26T03:42:56;49.57;;;24.43;;
9964;SDS011;5023;53.554;9.964;2023-01-26T03:48:15;44.97;;;24.00;;
9964;SDS011;5023;53.554;9.964;2023-01-26T03:53:35;44.37;;;23.87;;
9964;SDS011;5023;53.554;9.964;2023-01-26T03:58:56;46.63;;;24.40;;
9964;SDS011;5023;53.554;9.964;2023-01-26T04:04:07;43.27;;;22.70;;
9964;SDS011;5023;53.554;9.964;2023-01-26T04:09:28;44.90;;;23.73;;
9964;SDS011;5023;53.554;9.964;2023-01-26T04:14:32;45.50;;;24.17;;
9964;SDS011;5023;53.554;9.964;2023-01-26T04:19:52;41.77;;;22.43;;
9964;SDS011;5023;53.554;9.964;2023-01-26T04:25:12;43.73;;;22.40;;
9964;SDS011;5023;53.554;9.964;2023-01-26T04:30:17;37.77;;;21.17;;
9964;SDS011;5023;53.554;9.964;2023-01-26T04:35:19;39.10;;;21.23;;
9964;SDS011;5023;53.554;9.964;2023-01-26T04:40:21;41.03;;;21.47;;
9964;SDS011;5023;53.554;9.964;2023-01-26T04:45:25;40.90;;;21.87;;
9964;SDS011;5023;53.554;9.964;2023-01-26T04:50:27;34.57;;;20.10;;
9964;SDS011;5023;53.554;9.964;2023-01-26T04:55:30;37.03;;;20.47;;
9964;SDS011;5023;53.554;9.964;2023-01-26T05:00:34;34.70;;;18.77;;
9964;SDS011;5023;53.554;9.964;2023-01-26T05:05:36;33.77;;;19.07;;
9964;SDS011;5023;53.554;9.964;2023-01-26T05:10:39;30.63;;;18.27;;
9964;SDS011;5023;53.554;9.964;2023-01-26T05:15:46;27.80;;;16.97;;
9964;SDS011;5023;53.554;9.964;2023-01-26T05:20:48;30.07;;;17.50;;
9964;SDS011;5023;53.554;9.964;2023-01-26T05:25:50;27.37;;;16.30;;
9964;SDS011;5023;53.554;9.964;2023-01-26T05:30:54;29.70;;;16.67;;
9964;SDS011;5023;53.554;9.964;2023-01-26T05:35:56;31.63;;;16.30;;
9964;SDS011;5023;53.554;9.964;2023-01-26T05:40:58;27.03;;;15.93;;
9964;SDS011;5023;53.554;9.964;2023-01-26T05:46:01;29.73;;;16.77;;
9964;SDS011;5023;53.554;9.964;2023-01-26T05:51:04;27.10;;;15.73;;
9964;SDS011;5023;53.554;9.964;2023-01-26T05:56:06;24.43;;;15.10;;
9964;SDS011;5023;53.554;9.964;2023-01-26T06:01:09;27.47;;;16.17;;
9964;SDS011;5023;53.554;9.964;2023-01-26T06:06:11;29.77;;;16.67;;
9964;SDS011;5023;53.554;9.964;2023-01-26T06:11:13;27.97;;;16.47;;
9964;SDS011;5023;53.554;9.964;2023-01-26T06:16:17;29.00;;;16.80;;
9964;SDS011;5023;53.554;9.964;2023-01-26T06:21:19;28.20;;;16.43;;
9964;SDS011;5023;53.554;9.964;2023-01-26T06:26:21;27.93;;;15.87;;
9964;SDS011;5023;53.554;9.964;2023-01-26T06:31:25;26.87;;;15.73;;
9964;SDS011;5023;53.554;9.964;2023-01-26T06:36:28;27.63;;;15.73;;
9964;SDS011;5023;53.554;9.964;2023-01-26T06:41:31;26.10;;;14.97;;
9964;SDS011;5023;53.554;9.964;2023-01-26T06:46:35;28.37;;;15.33;;
9964;SDS011;5023;53.554;9.964;2023-01-26T06:51:44;26.83;;;15.93;;
9964;SDS011;5023;53.554;9.964;2023-01-26T06:56:56;28.30;;;16.23;;
9964;SDS011;5023;53.554;9.964;2023-01-26T07:01:59;28.47;;;16.17;;
9964;SDS011;5023;53.554;9.964;2023-01-26T07:07:02;29.10;;;16.10;;
9964;SDS011;5023;53.554;9.964;2023-01-26T07:12:06;28.80;;;16.27;;
9964;SDS011;5023;53.554;9.964;2023-01-26T07:17:10;25.53;;;15.40;;
9964;SDS011;5023;53.554;9.964;2023-01-26T07:22:13;29.67;;;16.63;;
9964;SDS011;5023;53.554;9.964;2023-01-26T07:27:15;27.07;;;15.67;;
9964;SDS011;5023;53.554;9.964;2023-01-26T07:32:19;26.60;;;15.80;;
9964;SDS011;5023;53.554;9.964;2023-01-26T07:37:26;30.10;;;16.70;;
9964;SDS011;5023;53.554;9.964;2023-01-26T07:42:28;29.17;;;16.27;;
9964;SDS011;5023;53.554;9.964;2023-01-26T07:47:37;29.20;;;17.07;;
9964;SDS011;5023;53.554;9.964;2023-01-26T07:52:39;26.87;;;16.60;;
9964;SDS011;5023;53.554;9.964;2023-01-26T07:57:42;27.53;;;16.63;;
9964;SDS011;5023;53.554;9.964;2023-01-26T08:02:49;28.83;;;16.70;;
9964;SDS011;5023;53.554;9.964;2023-01-26T08:07:51;28.60;;;15.97;;
9964;SDS011;5023;53.554;9.964;2023-01-26T08:12:53;28.60;;;16.03;;
9964;SDS011;5023;53.554;9.964;2023-01-26T08:17:57;39.47;;;24.50;;
9964;SDS011;5023;53.554;9.964;2023-01-26T08:23:02;26.00;;;14.70;;
9964;SDS011;5023;53.554;9.964;2023-01-26T08:28:05;26.80;;;15.80;;
9964;SDS011;5023;53.554;9.964;2023-01-26T08:33:11;27.47;;;16.27;;
9964;SDS011;5023;53.554;9.964;2023-01-26T08:38:13;27.13;;;15.97;;
9964;SDS011;5023;53.554;9.964;2023-01-26T08:43:15;28.43;;;16.77;;
9964;SDS011;5023;53.554;9.964;2023-01-26T08:48:19;29.73;;;16.93;;
9964;SDS011;5023;53.554;9.964;2023-01-26T08:53:22;27.80;;;16.47;;
9964;SDS011;5023;53.554;9.964;2023-01-26T08:58:24;25.50;;;15.03;;
9964;SDS011;5023;53.554;9.964;2023-01-26T09:03:30;53.07;;;28.07;;
9964;SDS011;5023;53.554;9.964;2023-01-26T09:08:33;39.50;;;23.90;;
9964;SDS011;5023;53.554;9.964;2023-01-26T09:13:35;21.07;;;13.57;;
9964;SDS011;5023;53.554;9.964;2023-01-26T09:18:39;17.30;;;11.53;;
9964;SDS011;5023;53.554;9.964;2023-01-26T09:23:41;17.00;;;11.60;;
9964;SDS011;5023;53.554;9.964;2023-01-26T09:28:43;17.03;;;10.50;;
9964;SDS011;5023;53.554;9.964;2023-01-26T09:33:48;16.60;;;10.70;;
9964;SDS011;5023;53.554;9.964;2023-01-26T09:38:50;16.30;;;9.83;;
9964;SDS011;5023;53.554;9.964;2023-01-26T09:43:53;17.03;;;11.03;;
9964;SDS011;5023;53.554;9.964;2023-01-26T09:49:01;15.63;;;9.67;;
9964;SDS011;5023;53.554;9.964;2023-01-26T09:54:09;16.30;;;10.23;;
9964;SDS011;5023;53.554;9.964;2023-01-26T09:59:21;15.20;;;9.73;;
9964;SDS011;5023;53.554;9.964;2023-01-26T10:04:33;15.53;;;10.07;;
9964;SDS011;5023;53.554;9.964;2023-01-26T10:09:37;17.23;;;10.50;;
9964;SDS011;5023;53.554;9.964;2023-01-26T10:14:43;19.47;;;11.20;;
9964;SDS011;5023;53.554;9.964;2023-01-26T10:19:51;17.57;;;11.13;;
9964;SDS011;5023;53.554;9.964;2023-01-26T10:24:57;19.50;;;12.30;;
9964;SDS011;5023;53.554;9.964;2023-01-26T10:30:00;18.53;;;11.80;;
9964;SDS011;5023;53.554;9.964;2023-01-26T10:35:07;21.97;;;11.93;;
9964;SDS011;5023;53.554;9.964;2023-01-26T10:40:18;21.00;;;12.63;;
9964;SDS011;5023;53.554;9.964;2023-01-26T10:45:24;21.40;;;13.27;;
9964;SDS011;5023;53.554;9.964;2023-01-26T10:50:30;25.10;;;12.43;;
9964;SDS011;5023;53.554;9.964;2023-01-26T10:55:35;23.40;;;12.47;;
9964;SDS011;5023;53.554;9.964;2023-01-26T11:00:37;24.73;;;13.83;;
9964;SDS011;5023;53.554;9.964;2023-01-26T11:05:42;25.07;;;12.83;;
9964;SDS011;5023;53.554;9.964;2023-01-26T11:10:50;30.43;;;13.70;;
9964;SDS011;5023;53.554;9.964;2023-01-26T11:16:00;26.73;;;14.57;;
9964;SDS011;5023;53.554;9.964;2023-01-26T11:21:10;23.40;;;12.20;;
9964;SDS011;5023;53.554;9.964;2023-01-26T11:26:29;27.47;;;14.00;;
9964;SDS011;5023;53.554;9.964;2023-01-26T11:31:45;25.37;;;12.90;;
9964;SDS011;5023;53.554;9.964;2023-01-26T11:37:00;25.47;;;13.33;;
9964;SDS011;5023;53.554;9.964;2023-01-26T11:42:14;30.57;;;14.83;;
9964;SDS011;5023;53.554;9.964;2023-01-26T11:47:30;24.00;;;13.13;;
9964;SDS011;5023;53.554;9.964;2023-01-26T11:52:45;28.50;;;13.80;;
9964;SDS011;5023;53.554;9.964;2023-01-26T11:58:12;32.27;;;15.53;;
9964;SDS011;5023;53.554;9.964;2023-01-26T12:03:22;24.57;;;12.43;;
9964;SDS011;5023;53.554;9.964;2023-01-26T12:08:37;25.43;;;13.67;;
9964;SDS011;5023;53.554;9.964;2023-01-26T12:13:42;30.93;;;12.93;;
9964;SDS011;5023;53.554;9.964;2023-01-26T12:18:50;25.30;;;13.20;;
9964;SDS011;5023;53.554;9.964;2023-01-26T12:23:59;22.93;;;12.57;;
9964;SDS011;5023;53.554;9.964;2023-01-26T12:29:04;27.13;;;11.57;;
9964;SDS011;5023;53.554;9.964;2023-01-26T12:34:11;21.60;;;11.97;;
9964;SDS011;5023;53.554;9.964;2023-01-26T12:39:17;27.87;;;14.13;;
9964;SDS011;5023;53.554;9.964;2023-01-26T12:44:32;25.00;;;12.67;;
9964;SDS011;5023;53.554;9.964;2023-01-26T12:49:39;26.63;;;15.23;;
9964;SDS011;5023;53.554;9.964;2023-01-26T12:54:52;32.77;;;16.10;;
9964;SDS011;5023;53.554;9.964;2023-01-26T13:00:02;22.57;;;12.37;;
9964;SDS011;5023;53.554;9.964;2023-01-26T13:05:19;20.43;;;10.77;;
9964;SDS011;5023;53.554;9.964;2023-01-26T13:15:45;22.47;;;11.07;;
9964;SDS011;5023;53.554;9.964;2023-01-26T13:20:50;16.80;;;9.27;;
9964;SDS011;5023;53.554;9.964;2023-01-26T13:26:09;16.23;;;10.13;;
9964;SDS011;5023;53.554;9.964;2023-01-26T13:31:29;20.53;;;9.80;;
9964;SDS011;5023;53.554;9.964;2023-01-26T13:36:46;18.10;;;9.70;;
9964;SDS011;5023;53.554;9.964;2023-01-26T13:41:53;16.53;;;9.13;;
9964;SDS011;5023;53.554;9.964;2023-01-26T13:46:56;25.23;;;15.47;;
9964;SDS011;5023;53.554;9.964;2023-01-26T13:52:03;22.63;;;14.27;;
9964;SDS011;5023;53.554;9.964;2023-01-26T13:57:22;15.03;;;8.37;;
9964;SDS011;5023;53.554;9.964;2023-01-26T14:02:28;21.47;;;10.57;;
9964;SDS011;5023;53.554;9.964;2023-01-26T14:07:33;15.03;;;9.10;;
9964;SDS011;5023;53.554;9.964;2023-01-26T14:12:42;18.63;;;9.60;;
9964;SDS011;5023;53.554;9.964;2023-01-26T14:17:47;20.30;;;10.77;;
9964;SDS011;5023;53.554;9.964;2023-01-26T14:23:01;14.40;;;8.87;;
9964;SDS011;5023;53.554;9.964;2023-01-26T14:28:15;19.80;;;9.13;;
9964;SDS011;5023;53.554;9.964;2023-01-26T14:33:27;18.73;;;9.73;;
9964;SDS011;5023;53.554;9.964;2023-01-26T14:38:38;29.07;;;14.67;;
9964;SDS011;5023;53.554;9.964;2023-01-26T14:43:43;25.80;;;11.77;;
9964;SDS011;5023;53.554;9.964;2023-01-26T14:48:46;20.47;;;9.57;;
9964;SDS011;5023;53.554;9.964;2023-01-26T14:53:51;27.37;;;14.80;;
9964;SDS011;5023;53.554;9.964;2023-01-26T14:58:57;25.50;;;13.03;;
9964;SDS011;5023;53.554;9.964;2023-01-26T15:04:00;21.50;;;11.17;;
9964;SDS011;5023;53.554;9.964;2023-01-26T15:09:05;21.20;;;11.63;;
9964;SDS011;5023;53.554;9.964;2023-01-26T15:14:28;22.93;;;11.63;;
9964;SDS011;5023;53.554;9.964;2023-01-26T15:19:38;19.03;;;10.30;;
9964;SDS011;5023;53.554;9.964;2023-01-26T15:24:41;23.20;;;11.73;;
9964;SDS011;5023;53.554;9.964;2023-01-26T15:29:45;23.30;;;12.37;;
9964;SDS011;5023;53.554;9.964;2023-01-26T15:34:48;22.30;;;11.50;;
9964;SDS011;5023;53.554;9.964;2023-01-26T15:40:05;20.03;;;11.73;;
9964;SDS011;5023;53.554;9.964;2023-01-26T15:45:16;21.53;;;13.20;;
9964;SDS011;5023;53.554;9.964;2023-01-26T15:50:23;19.47;;;10.97;;
9964;SDS011;5023;53.554;9.964;2023-01-26T15:55:26;21.93;;;12.87;;
9964;SDS011;5023;53.554;9.964;2023-01-26T16:00:32;19.20;;;11.77;;
9964;SDS011;5023;53.554;9.964;2023-01-26T16:05:34;19.20;;;11.47;;
9964;SDS011;5023;53.554;9.964;2023-01-26T16:10:37;21.70;;;11.97;;
9964;SDS011;5023;53.554;9.964;2023-01-26T16:15:41;18.90;;;11.40;;
9964;SDS011;5023;53.554;9.964;2023-01-26T16:20:47;23.73;;;13.03;;
9964;SDS011;5023;53.554;9.964;2023-01-26T16:25:49;21.40;;;11.63;;
9964;SDS011;5023;53.554;9.964;2023-01-26T16:30:53;22.90;;;13.37;;
9964;SDS011;5023;53.554;9.964;2023-01-26T16:35:55;24.03;;;16.83;;
9964;SDS011;5023;53.554;9.964;2023-01-26T16:40:59;24.67;;;14.97;;
9964;SDS011;5023;53.554;9.964;2023-01-26T16:46:03;25.33;;;15.07;;
9964;SDS011;5023;53.554;9.964;2023-01-26T16:51:15;27.93;;;16.20;;
9964;SDS011;5023;53.554;9.964;2023-01-26T16:56:19;26.23;;;14.27;;
9964;SDS011;5023;53.554;9.964;2023-01-26T17:01:23;29.17;;;14.60;;
9964;SDS011;5023;53.554;9.964;2023-01-26T17:06:29;37.80;;;21.83;;
9964;SDS011;5023;53.554;9.964;2023-01-26T17:11:31;23.37;;;13.60;;
9964;SDS011;5023;53.554;9.964;2023-01-26T17:16:35;30.53;;;13.23;;
9964;SDS011;5023;53.554;9.964;2023-01-26T17:21:38;27.60;;;15.80;;
9964;SDS011;5023;53.554;9.964;2023-01-26T17:26:40;25.73;;;15.97;;
9964;SDS011;5023;53.554;9.964;2023-01-26T17:31:45;32.23;;;15.33;;
9964;SDS011;5023;53.554;9.964;2023-01-26T17:36:47;25.53;;;12.87;;
9964;SDS011;5023;53.554;9.964;2023-01-26T17:41:49;24.17;;;12.30;;
9964;SDS011;5023;53.554;9.964;2023-01-26T17:46:54;21.20;;;12.67;;
9964;SDS011;5023;53.554;9.964;2023-01-26T17:51:57;23.10;;;13.10;;
9964;SDS011;5023;53.554;9.964;2023-01-26T17:57:00;23.83;;;13.23;;
9964;SDS011;5023;53.554;9.964;2023-01-26T18:02:03;21.00;;;13.00;;
9964;SDS011;5023;53.554;9.964;2023-01-26T18:07:07;21.73;;;12.77;;
9964;SDS011;5023;53.554;9.964;2023-01-26T18:12:11;26.43;;;15.40;;
9964;SDS011;5023;53.554;9.964;2023-01-26T18:17:14;22.40;;;12.10;;
9964;SDS011;5023;53.554;9.964;2023-01-26T18:22:16;26.03;;;13.47;;
9964;SDS011;5023;53.554;9.964;2023-01-26T18:27:18;27.20;;;16.97;;
9964;SDS011;5023;53.554;9.964;2023-01-26T18:32:22;23.90;;;13.10;;
9964;SDS011;5023;53.554;9.964;2023-01-26T18:37:24;20.90;;;11.33;;
9964;SDS011;5023;53.554;9.964;2023-01-26T18:42:26;20.53;;;12.10;;
9964;SDS011;5023;53.554;9.964;2023-01-26T18:47:30;21.87;;;10.80;;
9964;SDS011;5023;53.554;9.964;2023-01-26T18:52:32;16.47;;;9.33;;
9964;SDS011;5023;53.554;9.964;2023-01-26T18:57:34;34.73;;;20.70;;
9964;SDS011;5023;53.554;9.964;2023-01-26T19:02:39;30.00;;;16.03;;
9964;SDS011;5023;53.554;9.964;2023-01-26T19:07:41;23.13;;;11.30;;
9964;SDS011;5023;53.554;9.964;2023-01-26T19:12:44;27.60;;;13.67;;
9964;SDS011;5023;53.554;9.964;2023-01-26T19:17:50;21.47;;;11.87;;
9964;SDS011;5023;53.554;9.964;2023-01-26T19:22:53;26.27;;;13.30;;
9964;SDS011;5023;53.554;9.964;2023-01-26T19:27:56;20.27;;;11.63;;
9964;SDS011;5023;53.554;9.964;2023-01-26T19:33:00;27.50;;;15.77;;
9964;SDS011;5023;53.554;9.964;2023-01-26T19:38:19;19.27;;;11.80;;
9964;SDS011;5023;53.554;9.964;2023-01-26T19:43:21;26.23;;;14.20;;
9964;SDS011;5023;53.554;9.964;2023-01-26T19:48:26;27.33;;;14.00;;
9964;SDS011;5023;53.554;9.964;2023-01-26T19:53:29;28.90;;;17.57;;
9964;SDS011;5023;53.554;9.964;2023-01-26T19:58:31;22.63;;;11.73;;
9964;SDS011;5023;53.554;9.964;2023-01-26T20:03:35;17.60;;;10.37;;
9964;SDS011;5023;53.554;9.964;2023-01-26T20:08:37;21.77;;;13.27;;
9964;SDS011;5023;53.554;9.964;2023-01-26T20:13:39;13.67;;;9.57;;
9964;SDS011;5023;53.554;9.964;2023-01-26T20:18:43;16.40;;;11.23;;
9964;SDS011;5023;53.554;9.964;2023-01-26T20:23:45;13.83;;;10.20;;
9964;SDS011;5023;53.554;9.964;2023-01-26T20:28:48;17.30;;;13.67;;
9964;SDS011;5023;53.554;9.964;2023-01-26T20:33:55;16.20;;;12.73;;
9964;SDS011;5023;53.554;9.964;2023-01-26T20:38:57;19.00;;;12.20;;
9964;SDS011;5023;53.554;9.964;2023-01-26T20:44:00;16.93;;;11.23;;
9964;SDS011;5023;53.554;9.964;2023-01-26T20:49:07;14.43;;;11.10;;
9964;SDS011;5023;53.554;9.964;2023-01-26T20:54:12;18.50;;;12.30;;
9964;SDS011;5023;53.554;9.964;2023-01-26T20:59:15;27.43;;;18.70;;
9964;SDS011;5023;53.554;9.964;2023-01-26T21:04:20;22.10;;;14.77;;
9964;SDS011;5023;53.554;9.964;2023-01-26T21:09:22;19.40;;;13.67;;
9964;SDS011;5023;53.554;9.964;2023-01-26T21:14:24;18.00;;;13.67;;
9964;SDS011;5023;53.554;9.964;2023-01-26T21:19:28;18.13;;;12.40;;
9964;SDS011;5023;53.554;9.964;2023-01-26T21:24:30;23.90;;;14.37;;
9964;SDS011;5023;53.554;9.964;2023-01-26T21:29:34;18.17;;;13.97;;
9964;SDS011;5023;53.554;9.964;2023-01-26T21:34:41;14.20;;;9.13;;
9964;SDS011;5023;53.554;9.964;2023-01-26T21:39:43;20.80;;;11.87;;
9964;SDS011;5023;53.554;9.964;2023-01-26T21:44:45;16.73;;;12.70;;
9964;SDS011;5023;53.554;9.964;2023-01-26T21:50:08;11.17;;;8.27;;
9964;SDS011;5023;53.554;9.964;2023-01-26T21:55:11;13.67;;;10.00;;
9964;SDS011;5023;53.554;9.964;2023-01-26T22:00:14;14.40;;;9.43;;
9964;SDS011;5023;53.554;9.964;2023-01-26T22:05:18;11.60;;;9.03;;
9964;SDS011;5023;53.554;9.964;2023-01-26T22:10:20;9.67;;;7.80;;
9964;SDS011;5023;53.554;9.964;2023-01-26T22:15:22;10.23;;;7.70;;
9964;SDS011;5023;53.554;9.964;2023-01-26T22:20:26;8.93;;;6.87;;
9964;SDS011;5023;53.554;9.964;2023-01-26T22:25:28;21.77;;;16.27;;
9964;SDS011;5023;53.554;9.964;2023-01-26T22:30:30;13.60;;;9.60;;
9964;SDS011;5023;53.554;9.964;2023-01-26T22:35:34;9.60;;;7.30;;
9964;SDS011;5023;53.554;9.964;2023-01-26T22:40:36;9.57;;;7.17;;
9964;SDS011;5023;53.554;9.964;2023-01-26T22:45:38;7.60;;;4.80;;
9964;SDS011;5023;53.554;9.964;2023-01-26T22:50:42;6.70;;;5.00;;
9964;SDS011;5023;53.554;9.964;2023-01-26T22:55:48;4.63;;;4.00;;
9964;SDS011;5023;53.554;9.964;2023-01-26T23:00:51;4.30;;;3.90;;
9964;SDS011;5023;53.554;9.964;2023-01-26T23:05:58;7.57;;;6.47;;
9964;SDS011;5023;53.554;9.964;2023-01-26T23:11:02;5.20;;;3.70;;
9964;SDS011;5023;53.554;9.964;2023-01-26T23:16:05;4.33;;;3.10;;
9964;SDS011;5023;53.554;9.964;2023-01-26T23:21:10;6.07;;;4.33;;
9964;SDS011;5023;53.554;9.964;2023-01-26T23:26:12;8.63;;;6.13;;
9964;SDS011;5023;53.554;9.964;2023-01-26T23:31:15;3.07;;;2.87;;
9964;SDS011;5023;53.554;9.964;2023-01-26T23:36:19;5.07;;;2.70;;
9964;SDS011;5023;53.554;9.964;2023-01-26T23:41:21;3.17;;;2.80;;
9964;SDS011;5023;53.554;9.964;2023-01-26T23:46:24;2.87;;;2.60;;
9964;SDS011;5023;53.554;9.964;2023-01-26T23:51:27;3.00;;;2.80;;
9964;SDS011;5023;53.554;9.964;2023-01-26T23:56:31;3.43;;;2.97;;
